• Join FlightAware (Why Join?)
  • Login
  • US Flag 
04:53PM EST


 

Airport Tracker/Info


-or-


 

Live Flight TrackerFlight Track Log ✈ ASH3770 ✈ 20-Apr-2013 ✈ KORD - KROC

Flight Track Log - Related Links

Times and Time Zones

All times are in EDT time to prevent confusion due to time zone crossing. See the ASH3770 flight status page for this flight to view local times or setup timezone preferences in your user account.

Time Position Orientation Groundspeed Altitude Reporting Facility
EDT Latitude Longitude Course Direction KTS MPH feet Rate Location/Type
02:34PM 42.0167 -87.9000 90° East 211 243 3,200  Level Chicago TRACON
02:36PM 42.0833 -87.8500 29° Northeast 240 276 6,100 2,580 Climbing Chicago TRACON
02:37PM 42.0754 -87.2020 78° East  Level FlightAware Approximate
02:38PM 42.1013 -87.0258 77° East  Level FlightAware Approximate
02:38PM 42.1117 -87.6619 78° East 305 351 11,300  Level Chicago Center
02:39PM 42.1168 -86.8481 90° East  Level FlightAware Approximate
02:39PM 42.1131 -87.5419 89° East 316 364 13,900  Level Chicago Center
02:40PM 42.1168 -86.6967 90° East  Level FlightAware Approximate
02:40PM 42.1231 -87.4089 84° East 351 404 15,300  Level Chicago Center
02:41PM 42.1347 -87.2600 84° East 392 451 17,200 1,620 Climbing Chicago Center
02:42PM 42.1508 -87.0739 83° East 417 480 18,700 1,680 Climbing Chicago Center
02:43PM 42.1711 -86.9108 80° East 441 507 20,700 1,620 Climbing Chicago Center
02:44PM 42.2019 -86.7483 76° East 446 513 22,100 1,440 Climbing Chicago Center
02:45PM 42.2158 -86.5831 83° East 467 537 23,700 1,500 Climbing Chicago Center
02:46PM 42.2292 -86.4025 84° East 480 552 25,200 1,380 Climbing Chicago Center
02:47PM 42.2417 -86.2211 85° East 485 558 26,600 1,320 Climbing Chicago Center
02:48PM 42.2561 -85.9967 85° East 499 574 28,000 1,140 Climbing Chicago Center
02:49PM 42.2669 -85.8244 85° East 505 581 29,000 1,320 Climbing Chicago Center
02:50PM 42.2797 -85.6342 85° East 512 589 30,800 960 Climbing Chicago Center
02:51PM 42.2908 -85.4439 85° East 512 589 31,000 60 Climbing Chicago Center
02:52PM 42.3044 -85.2639 84° East 521 600 31,000 240 Level Cleveland Center
02:53PM 42.3161 -85.0739 85° East 515 593 31,500 960 Climbing Cleveland Center
02:54PM 42.3256 -84.8861 86° East 509 586 33,000 720 Climbing Cleveland Center
02:55PM 42.3344 -84.6986 86° East 502 578 33,000  Level Cleveland Center
02:56PM 42.3389 -84.5078 88° East 502 578 33,000  Level Cleveland Center
02:57PM 42.3494 -84.3172 86° East 502 578 33,000  Level Cleveland Center
02:58PM 42.3597 -84.1239 86° East 502 578 33,000  Level Cleveland Center
02:59PM 42.3675 -83.9333 87° East 507 583 33,000  Level Cleveland Center
03:00PM 42.3772 -83.7425 86° East 507 583 33,000  Level Cleveland Center
03:01PM 42.3864 -83.5519 86° East 507 583 33,000  Level Cleveland Center
03:02PM 42.3933 -83.3639 87° East 513 590 33,000  Level Cleveland Center
03:03PM 42.3997 -83.1700 87° East 513 590 33,000  Level Cleveland Center
03:04PM 42.4081 -82.9764 87° East 513 590 33,000  Level Cleveland Center
03:05PM 42.4161 -82.7853 87° East 513 590 33,000  Level Cleveland Center
03:06PM 42.4214 -82.6167 88° East 513 590 33,000  Level Cleveland Center
03:07PM 42.4289 -82.4256 87° East 513 590 33,000  Level Cleveland Center
03:08PM 42.4358 -82.2344 87° East 513 590 33,000  Level Cleveland Center
03:09PM 42.4406 -82.0433 88° East 507 583 33,000 -360 Level Cleveland Center
03:10PM 42.4469 -81.8550 87° East 502 578 32,300 -1,140 Descending Cleveland Center
03:11PM 42.4531 -81.6497 88° East 497 572 30,800 -1,560 Descending Cleveland Center
03:12PM 42.4569 -81.4611 88° East 497 572 29,200 -1,560 Descending Cleveland Center
03:13PM 42.4622 -81.2700 88° East 497 572 27,700 -1,140 Descending Cleveland Center
03:14PM 42.4675 -81.0786 88° East 502 578 27,000 -360 Descending Cleveland Center
03:15PM 42.4703 -80.8872 89° East 507 583 27,000 -120 Level Cleveland Center
03:16PM 42.4747 -80.6986 88° East 502 578 26,800 -600 Descending Cleveland Center
03:17PM 42.4747 -80.5072 90° East 507 583 25,800 -1,080 Descending Cleveland Center
03:18PM 42.4786 -80.3100 88° East 514 592 24,700 -900 Descending Cleveland Center
03:19PM 42.4803 -80.1469 89° East 504 580 24,000 -480 Descending Cleveland Center
03:20PM 42.4878 -79.9469 87° East 486 559 23,800 -780 Descending Cleveland Center
03:21PM 42.4928 -79.7639 88° East 481 554 22,500 -1,260 Descending Cleveland Center
03:22PM 42.4933 -79.5836 90° East 476 548 21,300 -1,200 Descending Cleveland Center
03:23PM 42.4917 -79.4061 91° East 476 548 20,100 -1,260 Descending Cleveland Center
03:24PM 42.5169 -79.2367 79° East 471 542 18,800 -1,500 Descending Cleveland Center
03:25PM 42.5969 -79.1222 46° Northeast 417 480 17,100 -1,680 Descending Cleveland Center
03:26PM 42.6767 -79.0131 45° Northeast 404 465 15,500 -1,680 Descending Cleveland Center
03:27PM 42.7481 -78.9067 48° Northeast 390 449 13,800 -1,560 Descending Cleveland Center
03:28PM 42.8217 -78.8028 46° Northeast 379 436 12,400 -1,440 Descending Cleveland Center
03:29PM 42.8931 -78.7017 46° Northeast 366 421 11,000 -1,080 Descending Cleveland Center
03:29PM 42.9333 -78.6333 51° Northeast 331 381 10,600 -840 Descending Buffalo TRACON
03:30PM 42.9414 -78.6008 71° East 344 396 10,200 -1,380 Descending Cleveland Center
03:30PM 42.9467 -78.5553 81° East 320 368 9,600 -1,320 Descending Cleveland Center
03:31PM 42.9603 -78.4953 73° East 315 362 8,900 -1,440 Descending Cleveland Center
03:31PM 42.9733 -78.4125 78° East 307 353 7,900 -1,320 Descending Cleveland Center
03:32PM 42.9831 -78.3725 72° East 304 350 7,600 -840 Descending Cleveland Center
03:32PM 43.0092 -78.3147 58° Northeast 294 338 7,100 -420 Descending Cleveland Center
03:33PM 43.0508 -78.2139 60° Northeast 294 338 7,000 -180 Descending Cleveland Center
03:34PM 43.0903 -78.1156 61° Northeast 296 341 6,800 -1,080 Descending Cleveland Center
03:35PM 43.1300 -78.0200 60° Northeast 290 334 4,900 -1,440 Descending Cleveland Center
03:36PM 43.1694 -77.9244 60° Northeast 287 330 4,000 -480 Descending Cleveland Center
03:37PM 43.2047 -77.8289 63° Northeast 283 326 4,000  Level Cleveland Center
03:38PM 43.2211 -77.7258 78° East 263 303 4,100 -180 Climbing Cleveland Center
03:39PM 43.2394 -77.6308 75° East 238 274 3,700 -780 Descending Cleveland Center
03:40PM 43.2539 -77.5417 77° East 245 282 2,600 -600 Descending Cleveland Center
03:41PM 43.2353 -77.4714 110° East 227 261 2,600  Level Cleveland Center
03:42PM 43.1764 -77.4517 166° South 203 234 2,600  Level Cleveland Center